This is the latest recevied weather packets stored in our database for station/object KQ4LLM. If no packets are shown the sender has not sent any weather packets the latest 10 day(s).
| Time | Temp. | Humidity | Pressure | Rain* | Wind** | Luminosity | Snow |
|---|---|---|---|---|---|---|---|
| 1777763135 | 15.56° C | 65% | - | 0 mm | - | - | - |
| 1777762833 | 16.11° C | 62% | - | 0 mm | - | - | - |
| 1777762528 | 16.11° C | 62% | - | 0 mm | - | - | - |
| 1777762226 | 16.11° C | 60% | - | 0 mm | - | - | - |
| 1777761922 | 16.11° C | 59% | - | 0 mm | - | - | - |
| 1777761619 | 16.11° C | 56% | - | 0 mm | - | - | - |
| 1777761317 | 16.67° C | 50% | - | 0 mm | - | - | - |
| 1777761015 | 16.67° C | 53% | - | 0 mm | - | - | - |
| 1777760712 | 17.22° C | 50% | - | 0 mm | - | - | - |
| 1777760408 | 17.22° C | 48% | - | 0 mm | - | - | - |
| 1777760103 | 17.22° C | 49% | - | 0 mm | - | - | - |
| 1777759801 | 17.78° C | 41% | - | 0 mm | - | - | - |
| 1777759496 | 17.78° C | 45% | - | 0 mm | - | - | - |
| 1777759193 | 17.78° C | 42% | - | 0 mm | - | - | - |
| 1777758891 | 17.78° C | 42% | - | 0 mm | - | - | - |
| 1777758588 | 17.78° C | 43% | - | 0 mm | - | - | - |
| 1777758284 | 17.78° C | 42% | - | 0 mm | - | - | - |
| 1777757982 | 17.22° C | 44% | - | 0 mm | - | - | - |
| 1777757678 | 17.22° C | 52% | - | 0 mm | - | - | - |
| 1777757377 | 17.22° C | 45% | - | 0 mm | - | - | - |
| 1777757075 | 17.22° C | 47% | - | 0 mm | - | - | - |
| 1777756772 | 17.22° C | 48% | - | 0 mm | - | - | - |
| 1777756468 | 17.22° C | 48% | - | 0 mm | - | - | - |
| 1777756166 | 17.22° C | 46% | - | 0 mm | - | - | - |
| 1777755862 | 16.11° C | 52% | - | 0 mm | - | - | - |
* Rain latest hour (hover to see other rain measurements)
** Current wind speed in m/s (hover to see current wind gust speed)